Time;durP1;ratioP1;P1;durP2;ratioP2;P2;SDS_P1;SDS_P2;PMS_P1;PMS_P2;Temp;Humidity;BMP_temperature;BMP_pressure;BME280_temperature;BME280_humidity;BME280_pressure;Samples;Min_cycle;Max_cycle;Signal;HPM_P1;HPM_P2
2023/06/13 00:00:05;;;;;;;1.10;1.00;;;;;;;;;;5061758;28;20652;-62
2023/06/13 00:02:33;;;;;;;1.50;1.27;;;;;;;;;;5063119;28;20040;-62
2023/06/13 00:05:00;;;;;;;1.00;1.00;;;;;;;;;;5062136;28;20076;-62
2023/06/13 00:07:32;;;;;;;1.10;1.00;;;;;;;;;;5063392;28;20080;-62
2023/06/13 00:09:59;;;;;;;1.42;1.25;;;;;;;;;;5062652;28;20554;-62
2023/06/13 00:12:25;;;;;;;1.33;1.05;;;;;;;;;;5062992;28;20088;-62
2023/06/13 00:14:51;;;;;;;0.98;0.85;;;;;;;;;;5062855;28;20072;-62
2023/06/13 00:17:18;;;;;;;1.20;1.10;;;;;;;;;;5063473;28;20077;-62
2023/06/13 00:19:45;;;;;;;1.45;1.08;;;;;;;;;;5044653;28;20411;-63
2023/06/13 00:22:14;;;;;;;0.85;0.82;;;;;;;;;;5063325;28;20385;-62
2023/06/13 00:24:43;;;;;;;1.20;1.10;;;;;;;;;;5045009;28;20048;-62
2023/06/13 00:27:10;;;;;;;1.08;0.98;;;;;;;;;;5062422;28;20048;-62
2023/06/13 00:29:36;;;;;;;1.45;0.93;;;;;;;;;;5062779;28;20040;-62
2023/06/13 00:32:02;;;;;;;2.00;1.02;;;;;;;;;;5062495;28;20097;-62
2023/06/13 00:34:28;;;;;;;1.00;1.00;;;;;;;;;;5062563;28;20387;-62
2023/06/13 00:36:55;;;;;;;0.93;0.88;;;;;;;;;;5062612;28;20055;-63
2023/06/13 00:39:21;;;;;;;0.88;0.88;;;;;;;;;;5062539;28;20109;-62
2023/06/13 00:41:47;;;;;;;1.23;1.08;;;;;;;;;;5062478;28;20102;-62
2023/06/13 00:44:13;;;;;;;1.00;0.95;;;;;;;;;;5062796;28;20032;-62
2023/06/13 00:46:41;;;;;;;1.08;0.98;;;;;;;;;;5062650;28;20567;-62
2023/06/13 00:49:08;;;;;;;1.75;1.17;;;;;;;;;;5062020;28;20049;-62
2023/06/13 00:51:41;;;;;;;1.20;1.10;;;;;;;;;;5062655;28;20050;-62
2023/06/13 00:54:10;;;;;;;1.08;0.70;;;;;;;;;;5062301;28;20040;-62
2023/06/13 00:56:36;;;;;;;1.58;1.00;;;;;;;;;;5062396;28;20091;-62
2023/06/13 00:59:03;;;;;;;1.13;1.02;;;;;;;;;;5062340;28;20047;-62
2023/06/13 01:01:30;;;;;;;1.13;0.93;;;;;;;;;;5062191;28;20040;-62
2023/06/13 01:03:59;;;;;;;1.77;1.10;;;;;;;;;;5062591;28;20452;-62
2023/06/13 01:06:25;;;;;;;0.80;0.80;;;;;;;;;;5062141;28;20053;-62
2023/06/13 01:08:52;;;;;;;1.70;1.20;;;;;;;;;;5061352;28;20065;-62
2023/06/13 01:11:28;;;;;;;1.30;1.20;;;;;;;;;;5064634;28;20033;-62
2023/06/13 01:14:03;;;;;;;1.20;1.10;;;;;;;;;;5065682;28;20040;-62
2023/06/13 01:16:38;;;;;;;1.33;1.23;;;;;;;;;;5065738;28;20055;-62
2023/06/13 01:19:08;;;;;;;1.38;1.27;;;;;;;;;;5065862;28;20110;-62
2023/06/13 01:21:37;;;;;;;1.55;1.13;;;;;;;;;;5065526;28;20132;-62
2023/06/13 01:24:12;;;;;;;0.82;0.82;;;;;;;;;;5065039;28;20051;-62
2023/06/13 01:26:46;;;;;;;1.23;0.82;;;;;;;;;;5065986;28;20049;-62
2023/06/13 01:29:14;;;;;;;1.38;1.27;;;;;;;;;;5065780;28;20044;-62
2023/06/13 01:31:41;;;;;;;1.15;1.05;;;;;;;;;;5065213;28;20432;-62
2023/06/13 01:34:07;;;;;;;0.70;0.70;;;;;;;;;;5065392;28;20514;-62
2023/06/13 01:36:34;;;;;;;1.10;0.90;;;;;;;;;;5064881;28;20174;-62
2023/06/13 01:39:00;;;;;;;1.30;1.20;;;;;;;;;;5065270;28;20126;-62
2023/06/13 01:41:26;;;;;;;1.92;1.10;;;;;;;;;;5065352;28;20040;-62
2023/06/13 01:43:52;;;;;;;1.48;1.38;;;;;;;;;;5064852;28;20492;-62
2023/06/13 01:46:26;;;;;;;1.02;0.98;;;;;;;;;;5065978;28;20040;-62
2023/06/13 01:48:55;;;;;;;1.10;1.00;;;;;;;;;;5065312;28;20123;-62
2023/06/13 01:51:24;;;;;;;1.55;1.45;;;;;;;;;;5065070;28;20746;-62
2023/06/13 01:53:54;;;;;;;1.40;1.30;;;;;;;;;;5065557;28;20045;-62
2023/06/13 01:56:22;;;;;;;1.30;1.20;;;;;;;;;;5065646;28;20114;-62
2023/06/13 01:59:04;;;;;;;1.67;1.58;;;;;;;;;;5065435;28;20045;-62
2023/06/13 02:01:34;;;;;;;1.38;1.27;;;;;;;;;;5065853;28;20052;-62
2023/06/13 02:04:01;;;;;;;1.20;1.10;;;;;;;;;;5065506;28;20075;-62
2023/06/13 02:06:27;;;;;;;1.25;1.15;;;;;;;;;;5065110;28;20056;-62
2023/06/13 02:08:53;;;;;;;1.50;1.40;;;;;;;;;;5064922;28;20049;-62
2023/06/13 02:11:19;;;;;;;1.55;1.40;;;;;;;;;;5065691;28;20143;-62
2023/06/13 02:13:47;;;;;;;1.30;1.20;;;;;;;;;;5065103;28;20578;-62
2023/06/13 02:16:14;;;;;;;1.00;0.90;;;;;;;;;;5065268;28;20063;-62
2023/06/13 02:18:40;;;;;;;1.08;1.02;;;;;;;;;;5064791;28;20057;-62
2023/06/13 02:21:06;;;;;;;1.40;1.30;;;;;;;;;;5064210;28;20579;-62
2023/06/13 02:23:32;;;;;;;1.27;1.17;;;;;;;;;;5064361;28;20629;-62
2023/06/13 02:25:58;;;;;;;1.15;1.05;;;;;;;;;;5064207;28;20517;-62
2023/06/13 02:28:24;;;;;;;1.30;1.20;;;;;;;;;;5065254;28;20052;-62
2023/06/13 02:30:50;;;;;;;1.77;1.65;;;;;;;;;;5064328;28;20500;-62
2023/06/13 02:33:17;;;;;;;1.58;1.48;;;;;;;;;;5064839;28;20040;-62
2023/06/13 02:35:43;;;;;;;1.58;1.48;;;;;;;;;;5064638;28;20048;-62
2023/06/13 02:38:09;;;;;;;1.70;1.60;;;;;;;;;;5063994;28;20040;-62
2023/06/13 02:40:38;;;;;;;1.80;1.70;;;;;;;;;;5063850;28;20052;-62
2023/06/13 02:43:04;;;;;;;1.73;1.48;;;;;;;;;;5063998;28;20071;-62
2023/06/13 02:45:30;;;;;;;1.92;1.40;;;;;;;;;;5064279;28;20454;-62
2023/06/13 02:47:56;;;;;;;1.50;1.40;;;;;;;;;;5063365;28;20496;-62
2023/06/13 02:50:22;;;;;;;1.35;1.25;;;;;;;;;;5064286;28;20055;-62
2023/06/13 02:52:48;;;;;;;1.48;1.30;;;;;;;;;;5064185;28;20044;-62
2023/06/13 02:55:14;;;;;;;1.13;1.02;;;;;;;;;;5063811;28;20153;-62
2023/06/13 02:57:41;;;;;;;1.25;1.15;;;;;;;;;;5046168;28;20049;-62
2023/06/13 03:00:08;;;;;;;1.23;1.08;;;;;;;;;;5063993;28;20066;-62
2023/06/13 03:02:36;;;;;;;1.23;1.13;;;;;;;;;;5063768;28;20551;-62
2023/06/13 03:05:03;;;;;;;1.50;1.40;;;;;;;;;;5063725;28;20452;-62
2023/06/13 03:07:31;;;;;;;1.35;1.25;;;;;;;;;;5063866;28;20133;-62
2023/06/13 03:09:58;;;;;;;1.48;1.38;;;;;;;;;;5063114;28;20597;-62
2023/06/13 03:12:24;;;;;;;1.52;1.42;;;;;;;;;;5063693;28;20060;-62
2023/06/13 03:14:50;;;;;;;1.20;1.00;;;;;;;;;;5063676;28;20435;-62
2023/06/13 03:17:16;;;;;;;1.02;0.90;;;;;;;;;;5064124;28;20059;-62
2023/06/13 03:19:42;;;;;;;1.70;1.33;;;;;;;;;;5063565;28;20138;-62
2023/06/13 03:22:13;;;;;;;1.58;1.48;;;;;;;;;;5063194;28;20086;-62
2023/06/13 03:24:40;;;;;;;1.10;1.00;;;;;;;;;;5063440;28;20044;-62
2023/06/13 03:27:06;;;;;;;1.17;1.10;;;;;;;;;;5063228;28;20036;-62
2023/06/13 03:29:32;;;;;;;0.88;0.85;;;;;;;;;;5063189;28;20123;-62
2023/06/13 03:31:58;;;;;;;1.08;1.08;;;;;;;;;;5063335;28;20579;-62
2023/06/13 03:34:26;;;;;;;1.60;1.38;;;;;;;;;;5062887;28;20056;-62
2023/06/13 03:36:52;;;;;;;2.33;1.23;;;;;;;;;;5062551;28;20089;-62
2023/06/13 03:39:18;;;;;;;1.60;1.42;;;;;;;;;;5063794;28;20044;-62
2023/06/13 03:41:44;;;;;;;1.88;1.50;;;;;;;;;;5063608;28;20041;-62
2023/06/13 03:44:10;;;;;;;1.52;1.42;;;;;;;;;;5062891;28;20055;-62
2023/06/13 03:46:36;;;;;;;1.60;1.40;;;;;;;;;;5063209;28;20052;-62
2023/06/13 03:49:03;;;;;;;1.60;1.30;;;;;;;;;;5062783;28;20495;-62
2023/06/13 03:51:29;;;;;;;1.20;1.10;;;;;;;;;;5062973;28;20044;-62
2023/06/13 03:53:55;;;;;;;1.40;1.30;;;;;;;;;;5063492;28;20539;-61
2023/06/13 03:56:21;;;;;;;2.67;1.65;;;;;;;;;;5063433;28;20048;-62
2023/06/13 03:58:47;;;;;;;1.30;1.20;;;;;;;;;;5062874;28;20118;-62
2023/06/13 04:01:13;;;;;;;1.30;1.20;;;;;;;;;;5063566;28;20551;-62
2023/06/13 04:03:39;;;;;;;1.50;1.30;;;;;;;;;;5063139;28;20097;-62
2023/06/13 04:06:08;;;;;;;1.60;1.50;;;;;;;;;;5063098;28;20589;-62
2023/06/13 04:08:38;;;;;;;1.35;1.25;;;;;;;;;;5062925;28;20052;-62
2023/06/13 04:11:05;;;;;;;2.03;1.38;;;;;;;;;;5062944;28;20378;-62
2023/06/13 04:13:31;;;;;;;1.55;1.40;;;;;;;;;;5062459;28;20053;-62
2023/06/13 04:15:57;;;;;;;1.80;1.30;;;;;;;;;;5062276;28;20527;-62
2023/06/13 04:18:24;;;;;;;1.70;1.60;;;;;;;;;;5062489;28;20083;-62
2023/06/13 04:20:53;;;;;;;1.25;1.15;;;;;;;;;;5062726;28;20143;-62
2023/06/13 04:23:21;;;;;;;1.33;1.23;;;;;;;;;;5063502;28;20045;-62
2023/06/13 04:25:47;;;;;;;1.23;1.13;;;;;;;;;;5062811;28;20440;-62
2023/06/13 04:28:15;;;;;;;1.63;1.45;;;;;;;;;;5062829;28;20040;-62
2023/06/13 04:30:41;;;;;;;1.50;1.35;;;;;;;;;;5062640;28;20048;-62
2023/06/13 04:33:13;;;;;;;1.42;1.33;;;;;;;;;;5061932;28;20405;-62
2023/06/13 04:35:44;;;;;;;1.30;1.20;;;;;;;;;;5062608;28;20052;-62
2023/06/13 04:38:14;;;;;;;1.10;1.00;;;;;;;;;;5062925;28;20426;-62
2023/06/13 04:40:40;;;;;;;1.27;1.15;;;;;;;;;;5062016;28;20040;-62
2023/06/13 04:43:08;;;;;;;1.40;1.30;;;;;;;;;;5062397;28;20102;-62
2023/06/13 04:45:36;;;;;;;1.58;1.48;;;;;;;;;;5064707;28;20088;-62
2023/06/13 04:48:03;;;;;;;1.60;1.50;;;;;;;;;;5065901;28;20049;-62
2023/06/13 04:50:29;;;;;;;1.65;1.55;;;;;;;;;;5066624;28;20136;-62
2023/06/13 04:52:55;;;;;;;1.48;1.38;;;;;;;;;;5066312;28;20178;-62
2023/06/13 04:55:22;;;;;;;1.30;1.20;;;;;;;;;;5066201;28;20047;-62
2023/06/13 04:57:48;;;;;;;1.48;1.38;;;;;;;;;;5066318;28;20813;-62
2023/06/13 05:00:15;;;;;;;2.15;1.55;;;;;;;;;;5066588;28;20120;-62
2023/06/13 05:02:42;;;;;;;1.60;1.35;;;;;;;;;;5066057;28;20044;-62
2023/06/13 05:05:08;;;;;;;1.80;1.45;;;;;;;;;;5066108;28;20047;-62
2023/06/13 05:07:35;;;;;;;1.63;1.52;;;;;;;;;;5065964;28;20052;-62
2023/06/13 05:10:04;;;;;;;1.75;1.65;;;;;;;;;;5066231;28;20056;-62
2023/06/13 05:12:30;;;;;;;1.90;1.67;;;;;;;;;;5066095;28;20762;-62
2023/06/13 05:14:56;;;;;;;1.77;1.67;;;;;;;;;;5065655;28;20508;-62
2023/06/13 05:17:22;;;;;;;3.05;1.40;;;;;;;;;;5066186;28;20040;-62
2023/06/13 05:19:48;;;;;;;2.42;2.15;;;;;;;;;;5066248;28;20041;-62
2023/06/13 05:22:15;;;;;;;1.90;1.70;;;;;;;;;;5065703;28;20048;-61
2023/06/13 05:24:41;;;;;;;1.80;1.55;;;;;;;;;;5065906;28;20573;-61
2023/06/13 05:27:07;;;;;;;1.50;1.40;;;;;;;;;;5065547;28;20116;-62
2023/06/13 05:29:33;;;;;;;1.48;1.20;;;;;;;;;;5065471;28;20041;-62
2023/06/13 05:31:59;;;;;;;1.50;1.25;;;;;;;;;;5065278;28;20048;-62
2023/06/13 05:34:26;;;;;;;1.00;1.00;;;;;;;;;;5065669;28;20473;-62
2023/06/13 05:36:53;;;;;;;1.58;1.27;;;;;;;;;;5065069;28;20048;-62
2023/06/13 05:39:19;;;;;;;1.52;1.42;;;;;;;;;;5066532;28;20119;-62
2023/06/13 05:41:45;;;;;;;1.40;1.30;;;;;;;;;;5065646;28;20776;-62
2023/06/13 05:44:13;;;;;;;1.90;1.70;;;;;;;;;;5065505;28;20094;-62
2023/06/13 05:46:39;;;;;;;2.72;1.60;;;;;;;;;;5065675;28;20443;-62
2023/06/13 05:49:05;;;;;;;1.35;1.25;;;;;;;;;;5065389;28;20586;-62
2023/06/13 05:51:32;;;;;;;1.73;1.30;;;;;;;;;;5065322;28;20048;-62
2023/06/13 05:53:58;;;;;;;1.63;1.20;;;;;;;;;;5065057;28;20079;-62
2023/06/13 05:56:25;;;;;;;1.42;1.30;;;;;;;;;;5064546;28;20085;-62
2023/06/13 05:58:51;;;;;;;1.20;1.10;;;;;;;;;;5064511;28;20190;-62
2023/06/13 06:01:20;;;;;;;1.20;1.10;;;;;;;;;;5065782;28;20049;-62
2023/06/13 06:03:46;;;;;;;1.20;1.10;;;;;;;;;;5065159;28;20095;-62
2023/06/13 06:06:13;;;;;;;1.05;0.90;;;;;;;;;;5065520;28;20127;-62
2023/06/13 06:08:39;;;;;;;1.33;1.13;;;;;;;;;;5065058;28;20052;-62
2023/06/13 06:11:05;;;;;;;1.08;0.98;;;;;;;;;;5064300;28;20518;-61
2023/06/13 06:13:31;;;;;;;0.85;0.85;;;;;;;;;;5065242;28;20051;-62
2023/06/13 06:15:57;;;;;;;0.82;0.82;;;;;;;;;;5064663;28;20033;-62
2023/06/13 06:18:23;;;;;;;0.70;0.70;;;;;;;;;;5064711;28;20152;-62
2023/06/13 06:20:49;;;;;;;1.00;1.00;;;;;;;;;;5064991;28;20106;-62
2023/06/13 06:23:16;;;;;;;1.17;0.88;;;;;;;;;;5065072;28;20384;-62
2023/06/13 06:25:42;;;;;;;0.90;0.80;;;;;;;;;;5064605;28;20052;-62
2023/06/13 06:28:08;;;;;;;1.30;1.20;;;;;;;;;;5064295;28;20511;-62
2023/06/13 06:30:35;;;;;;;0.80;0.75;;;;;;;;;;5064906;28;20063;-62
2023/06/13 06:33:01;;;;;;;1.48;1.20;;;;;;;;;;5064240;28;20048;-62
2023/06/13 06:35:27;;;;;;;1.05;0.95;;;;;;;;;;5064730;28;20032;-61
2023/06/13 06:37:53;;;;;;;1.30;1.20;;;;;;;;;;5064107;28;20056;-61
2023/06/13 06:40:19;;;;;;;1.30;1.20;;;;;;;;;;5064575;28;20503;-61
2023/06/13 06:42:45;;;;;;;1.33;0.88;;;;;;;;;;5064426;28;20492;-61
2023/06/13 06:45:12;;;;;;;1.00;0.90;;;;;;;;;;5046805;28;20049;-61
2023/06/13 06:47:38;;;;;;;1.17;1.10;;;;;;;;;;5064036;28;20045;-62
2023/06/13 06:50:05;;;;;;;1.10;1.00;;;;;;;;;;5064276;28;20064;-62
2023/06/13 06:52:31;;;;;;;0.80;0.73;;;;;;;;;;5064526;28;20404;-62
2023/06/13 06:54:57;;;;;;;1.17;1.08;;;;;;;;;;5063572;28;20085;-62
2023/06/13 06:57:23;;;;;;;1.27;1.00;;;;;;;;;;5064650;28;20113;-62
2023/06/13 06:59:49;;;;;;;0.90;0.90;;;;;;;;;;5064590;28;20124;-62
2023/06/13 07:02:16;;;;;;;0.80;0.80;;;;;;;;;;5064139;28;20348;-62
2023/06/13 07:04:42;;;;;;;0.90;0.90;;;;;;;;;;5063768;28;20040;-62
2023/06/13 07:07:08;;;;;;;1.23;1.10;;;;;;;;;;5063131;28;20052;-62
2023/06/13 07:09:34;;;;;;;0.90;0.90;;;;;;;;;;5063737;28;20071;-62
2023/06/13 07:12:00;;;;;;;1.05;0.95;;;;;;;;;;5063385;28;20044;-62
2023/06/13 07:14:26;;;;;;;1.95;1.00;;;;;;;;;;5063637;28;20036;-62
2023/06/13 07:16:54;;;;;;;1.00;1.00;;;;;;;;;;5063667;28;20041;-61
2023/06/13 07:19:20;;;;;;;1.38;1.27;;;;;;;;;;5064380;28;20048;-61
2023/06/13 07:21:46;;;;;;;1.25;0.93;;;;;;;;;;5063630;28;20036;-61
2023/06/13 07:24:12;;;;;;;1.23;1.05;;;;;;;;;;5063690;28;20040;-61
2023/06/13 07:26:38;;;;;;;1.70;1.40;;;;;;;;;;5063706;28;20162;-62
2023/06/13 07:29:04;;;;;;;1.95;1.10;;;;;;;;;;5063292;28;20086;-62
2023/06/13 07:31:30;;;;;;;0.93;0.80;;;;;;;;;;5063923;28;20051;-62
2023/06/13 07:33:56;;;;;;;0.90;0.80;;;;;;;;;;5063376;28;20036;-62
2023/06/13 07:36:23;;;;;;;1.52;0.98;;;;;;;;;;5062920;28;20120;-62
2023/06/13 07:38:51;;;;;;;1.20;1.10;;;;;;;;;;5063369;28;20058;-62
2023/06/13 07:41:17;;;;;;;0.90;0.90;;;;;;;;;;5063904;28;20496;-62
2023/06/13 07:43:43;;;;;;;1.30;1.13;;;;;;;;;;5062862;28;20036;-62
2023/06/13 07:46:09;;;;;;;1.10;0.95;;;;;;;;;;5063158;28;20094;-62
2023/06/13 07:48:35;;;;;;;1.20;1.10;;;;;;;;;;5063271;28;20051;-62
2023/06/13 07:51:01;;;;;;;1.10;0.82;;;;;;;;;;5062279;28;20466;-62
2023/06/13 07:53:27;;;;;;;0.82;0.82;;;;;;;;;;5062915;28;20072;-62
2023/06/13 07:55:55;;;;;;;0.88;0.88;;;;;;;;;;5062955;28;20080;-62
2023/06/13 07:58:21;;;;;;;1.25;1.15;;;;;;;;;;5045189;28;20052;-62
2023/06/13 08:00:47;;;;;;;2.80;1.33;;;;;;;;;;5063224;28;20070;-62
2023/06/13 08:03:13;;;;;;;1.08;0.98;;;;;;;;;;5063118;28;20555;-62
2023/06/13 08:05:39;;;;;;;1.10;1.00;;;;;;;;;;5062764;28;20037;-62
2023/06/13 08:08:05;;;;;;;1.85;1.10;;;;;;;;;;5062619;28;20056;-62
2023/06/13 08:10:31;;;;;;;1.27;1.17;;;;;;;;;;5062710;28;20315;-62
2023/06/13 08:12:59;;;;;;;1.20;1.10;;;;;;;;;;5062990;28;20051;-62
2023/06/13 08:15:25;;;;;;;1.30;1.20;;;;;;;;;;5063393;28;20059;-62
2023/06/13 08:17:52;;;;;;;1.33;1.23;;;;;;;;;;5062235;28;20048;-62
2023/06/13 08:20:18;;;;;;;1.30;1.20;;;;;;;;;;5063043;28;20044;-62
2023/06/13 08:22:45;;;;;;;1.20;1.10;;;;;;;;;;5062488;28;20450;-62
2023/06/13 08:25:11;;;;;;;2.50;1.20;;;;;;;;;;5063109;28;20555;-62
2023/06/13 08:27:37;;;;;;;1.63;1.23;;;;;;;;;;5063066;28;20132;-62
2023/06/13 08:30:04;;;;;;;1.40;1.30;;;;;;;;;;5062419;28;20127;-62
2023/06/13 08:32:31;;;;;;;2.58;1.88;;;;;;;;;;5062726;28;20098;-62
2023/06/13 08:34:57;;;;;;;2.05;1.50;;;;;;;;;;5062672;28;20554;-62
2023/06/13 08:37:23;;;;;;;1.88;1.77;;;;;;;;;;5062972;28;20071;-62
2023/06/13 08:39:49;;;;;;;1.65;1.55;;;;;;;;;;5062650;28;20079;-62
2023/06/13 08:42:15;;;;;;;1.60;1.50;;;;;;;;;;5062618;28;20044;-62
2023/06/13 08:44:41;;;;;;;2.30;1.80;;;;;;;;;;5062747;28;20121;-62
2023/06/13 08:47:08;;;;;;;1.45;1.35;;;;;;;;;;5061764;28;20319;-62
2023/06/13 08:49:34;;;;;;;1.50;1.40;;;;;;;;;;5062292;28;20425;-62
2023/06/13 08:52:03;;;;;;;2.38;2.08;;;;;;;;;;5062094;28;20428;-62
2023/06/13 08:54:32;;;;;;;1.77;1.67;;;;;;;;;;5062330;28;20036;-62
2023/06/13 08:56:58;;;;;;;2.00;1.90;;;;;;;;;;5061967;28;20041;-62
2023/06/13 08:59:30;;;;;;;2.05;1.85;;;;;;;;;;5062399;28;20058;-62
2023/06/13 09:01:57;;;;;;;1.73;1.63;;;;;;;;;;5062056;28;20139;-62
2023/06/13 09:04:28;;;;;;;1.90;1.80;;;;;;;;;;5062159;28;20048;-62
2023/06/13 09:06:57;;;;;;;2.08;1.98;;;;;;;;;;5061851;28;20056;-62
2023/06/13 09:09:23;;;;;;;2.00;1.90;;;;;;;;;;5062197;28;20044;-62
2023/06/13 09:11:51;;;;;;;2.00;1.80;;;;;;;;;;5062285;28;20060;-62
2023/06/13 09:14:17;;;;;;;2.03;1.70;;;;;;;;;;5044764;28;20044;-62
2023/06/13 09:16:44;;;;;;;1.65;1.55;;;;;;;;;;5062119;28;20043;-62
2023/06/13 09:19:11;;;;;;;1.55;1.45;;;;;;;;;;5062165;28;20044;-62
2023/06/13 09:21:38;;;;;;;1.80;1.70;;;;;;;;;;5061732;28;20110;-62
2023/06/13 09:24:04;;;;;;;2.08;1.77;;;;;;;;;;5061802;28;20546;-62
2023/06/13 09:26:31;;;;;;;1.80;1.58;;;;;;;;;;5044657;28;20481;-62
2023/06/13 09:28:57;;;;;;;1.77;1.50;;;;;;;;;;5061322;28;20511;-62
2023/06/13 09:31:23;;;;;;;2.80;1.90;;;;;;;;;;5062142;28;20127;-62
2023/06/13 09:33:49;;;;;;;2.00;1.90;;;;;;;;;;5065986;28;20128;-62
2023/06/13 09:36:17;;;;;;;2.42;2.22;;;;;;;;;;5065393;28;20209;-62
2023/06/13 09:38:44;;;;;;;2.33;2.08;;;;;;;;;;5065566;28;20051;-62
2023/06/13 09:41:13;;;;;;;4.20;1.70;;;;;;;;;;5065620;28;20128;-62
2023/06/13 09:43:40;;;;;;;2.15;1.92;;;;;;;;;;5065648;28;20044;-62
2023/06/13 09:46:07;;;;;;;2.45;2.25;;;;;;;;;;5065510;28;20045;-62
2023/06/13 09:48:33;;;;;;;3.13;1.80;;;;;;;;;;5065724;28;20044;-62
2023/06/13 09:50:59;;;;;;;2.28;1.67;;;;;;;;;;5064911;28;20348;-62
2023/06/13 09:53:25;;;;;;;1.70;1.60;;;;;;;;;;5065179;28;20052;-63
2023/06/13 09:55:52;;;;;;;1.60;1.50;;;;;;;;;;5064803;28;20116;-62
2023/06/13 09:58:18;;;;;;;1.52;1.25;;;;;;;;;;5066238;28;20047;-62
2023/06/13 10:00:44;;;;;;;1.40;1.30;;;;;;;;;;5065001;28;20048;-62
2023/06/13 10:03:10;;;;;;;1.42;1.33;;;;;;;;;;5065134;28;20048;-62
2023/06/13 10:05:37;;;;;;;1.63;1.52;;;;;;;;;;5065584;28;20041;-62
2023/06/13 10:08:03;;;;;;;2.05;1.85;;;;;;;;;;5064753;28;20094;-62
2023/06/13 10:10:29;;;;;;;1.42;1.33;;;;;;;;;;5064595;28;20517;-62
2023/06/13 10:13:03;;;;;;;2.20;1.83;;;;;;;;;;5065237;28;20389;-62
2023/06/13 10:15:34;;;;;;;3.38;1.80;;;;;;;;;;5065254;28;20086;-62
2023/06/13 10:18:03;;;;;;;1.83;1.65;;;;;;;;;;5064159;28;20512;-62
2023/06/13 10:20:29;;;;;;;2.13;1.70;;;;;;;;;;5064722;28;20106;-62
2023/06/13 10:22:57;;;;;;;2.50;1.50;;;;;;;;;;5047349;28;20053;-62
2023/06/13 10:25:25;;;;;;;2.50;1.60;;;;;;;;;;5065139;28;20036;-62
2023/06/13 10:27:52;;;;;;;2.35;1.40;;;;;;;;;;5065338;28;20036;-62
2023/06/13 10:30:37;;;;;;;2.17;1.80;;;;;;;;;;5065178;28;20373;-62
2023/06/13 10:33:21;;;;;;;2.75;1.58;;;;;;;;;;5063804;28;20442;-62
2023/06/13 10:36:02;;;;;;;2.60;1.35;;;;;;;;;;5064628;28;20044;-63
2023/06/13 10:38:48;;;;;;;1.52;1.40;;;;;;;;;;5064519;28;20127;-63
2023/06/13 10:41:33;;;;;;;4.15;1.65;;;;;;;;;;5064531;28;20120;-62
2023/06/13 10:44:25;;;;;;;1.65;1.23;;;;;;;;;;5063740;28;20036;-62
2023/06/13 10:46:51;;;;;;;2.00;1.52;;;;;;;;;;5061235;28;20078;-62
2023/06/13 10:49:17;;;;;;;1.52;1.38;;;;;;;;;;5064771;28;20498;-62
2023/06/13 10:51:44;;;;;;;2.33;1.40;;;;;;;;;;5064545;28;20128;-62
2023/06/13 10:54:11;;;;;;;5.00;1.45;;;;;;;;;;5064307;28;20037;-62
2023/06/13 10:56:39;;;;;;;1.73;1.30;;;;;;;;;;5063813;28;20514;-62
2023/06/13 10:59:08;;;;;;;1.88;1.67;;;;;;;;;;5063719;28;20056;-62
2023/06/13 11:01:36;;;;;;;1.45;1.35;;;;;;;;;;5064392;28;20048;-62
2023/06/13 11:04:09;;;;;;;2.47;1.40;;;;;;;;;;5063620;28;20041;-62
2023/06/13 11:06:35;;;;;;;2.63;1.30;;;;;;;;;;5064053;28;20068;-62
2023/06/13 11:09:28;;;;;;;2.00;1.40;;;;;;;;;;5063450;28;20060;-62
2023/06/13 11:11:58;;;;;;;2.08;1.73;;;;;;;;;;5060803;28;20139;-63
2023/06/13 11:14:25;;;;;;;1.58;1.45;;;;;;;;;;5063550;28;20041;-62
2023/06/13 11:16:51;;;;;;;1.80;1.30;;;;;;;;;;5064090;28;20040;-63
2023/06/13 11:19:19;;;;;;;2.20;1.40;;;;;;;;;;5064400;28;20124;-63
2023/06/13 11:21:46;;;;;;;5.10;1.63;;;;;;;;;;5063074;28;20049;-62
2023/06/13 11:24:16;;;;;;;1.67;1.58;;;;;;;;;;5045577;28;20055;-62
2023/06/13 11:26:45;;;;;;;2.20;1.50;;;;;;;;;;5063698;28;20153;-62
2023/06/13 11:29:12;;;;;;;2.17;1.55;;;;;;;;;;5063187;28;20097;-62
2023/06/13 11:31:39;;;;;;;1.90;1.00;;;;;;;;;;5063513;28;20044;-62
2023/06/13 11:34:06;;;;;;;1.75;1.40;;;;;;;;;;5063235;28;20048;-62
2023/06/13 11:36:35;;;;;;;3.95;1.70;;;;;;;;;;5044960;28;20041;-62
2023/06/13 11:39:03;;;;;;;2.88;1.55;;;;;;;;;;5062938;28;20404;-62
2023/06/13 11:41:30;;;;;;;1.75;1.27;;;;;;;;;;5062855;28;20051;-62
2023/06/13 11:43:56;;;;;;;1.58;1.27;;;;;;;;;;5063469;28;20052;-62
2023/06/13 11:46:22;;;;;;;1.25;1.10;;;;;;;;;;5063148;28;20555;-62
2023/06/13 11:48:55;;;;;;;2.83;1.23;;;;;;;;;;5064433;28;20124;-62
2023/06/13 11:51:21;;;;;;;1.83;1.42;;;;;;;;;;5065734;28;20140;-63
2023/06/13 11:53:50;;;;;;;1.10;1.00;;;;;;;;;;5046821;28;20454;-63
2023/06/13 11:56:17;;;;;;;1.13;0.95;;;;;;;;;;5064765;28;20056;-62
2023/06/13 11:58:44;;;;;;;1.20;1.08;;;;;;;;;;5063262;28;20143;-63
2023/06/13 12:01:16;;;;;;;3.22;1.17;;;;;;;;;;5063030;28;20063;-63
2023/06/13 12:03:45;;;;;;;1.70;1.15;;;;;;;;;;5063033;28;20078;-62
2023/06/13 12:06:12;;;;;;;2.05;1.10;;;;;;;;;;5063066;28;20424;-63
2023/06/13 12:08:41;;;;;;;1.20;1.10;;;;;;;;;;5062963;28;20107;-62
2023/06/13 12:11:09;;;;;;;1.40;1.10;;;;;;;;;;5062243;28;20087;-62
2023/06/13 12:13:36;;;;;;;1.65;1.20;;;;;;;;;;5062911;28;20465;-62
2023/06/13 12:16:02;;;;;;;1.67;1.50;;;;;;;;;;5062667;28;20098;-62
2023/06/13 12:18:28;;;;;;;3.55;1.55;;;;;;;;;;5062868;28;20105;-62
2023/06/13 12:20:56;;;;;;;1.23;0.90;;;;;;;;;;5062630;28;20044;-62
2023/06/13 12:23:23;;;;;;;1.30;1.00;;;;;;;;;;5063123;28;20488;-62
2023/06/13 12:25:50;;;;;;;1.52;0.90;;;;;;;;;;5062511;28;20132;-62
2023/06/13 12:28:17;;;;;;;2.58;1.10;;;;;;;;;;5062864;28;20056;-63
2023/06/13 12:30:43;;;;;;;1.38;0.98;;;;;;;;;;5061950;28;20113;-62
2023/06/13 12:33:16;;;;;;;1.58;1.02;;;;;;;;;;5062619;28;20048;-62
2023/06/13 12:35:52;;;;;;;1.08;1.00;;;;;;;;;;5062375;28;20059;-62
2023/06/13 12:38:36;;;;;;;1.33;1.02;;;;;;;;;;5062823;28;20044;-62
2023/06/13 12:41:12;;;;;;;4.07;1.45;;;;;;;;;;5061941;28;20397;-62
2023/06/13 12:43:41;;;;;;;1.20;1.10;;;;;;;;;;5063177;28;20174;-62
2023/06/13 12:46:07;;;;;;;2.78;1.23;;;;;;;;;;5062392;28;20049;-63
2023/06/13 12:48:37;;;;;;;1.95;1.27;;;;;;;;;;5062923;28;20226;-63
2023/06/13 12:51:03;;;;;;;3.17;1.23;;;;;;;;;;5062329;28;20375;-63
2023/06/13 12:53:31;;;;;;;1.25;1.15;;;;;;;;;;5062088;28;20045;-62
2023/06/13 12:56:00;;;;;;;1.40;1.30;;;;;;;;;;5061995;28;20051;-62
2023/06/13 12:58:39;;;;;;;1.70;1.15;;;;;;;;;;5062564;28;20075;-63
2023/06/13 13:01:05;;;;;;;1.40;1.15;;;;;;;;;;5062258;28;20048;-63
2023/06/13 13:03:32;;;;;;;1.98;1.25;;;;;;;;;;5062177;28;20563;-62
2023/06/13 13:05:58;;;;;;;2.25;1.20;;;;;;;;;;5062716;28;20076;-62
2023/06/13 13:08:24;;;;;;;3.30;1.30;;;;;;;;;;5066444;28;20130;-63
2023/06/13 13:10:51;;;;;;;1.65;1.30;;;;;;;;;;5066783;28;20188;-63
2023/06/13 13:13:17;;;;;;;2.75;1.42;;;;;;;;;;5048392;28;20040;-62
2023/06/13 13:15:45;;;;;;;1.58;1.20;;;;;;;;;;5066228;28;20148;-63
2023/06/13 13:18:11;;;;;;;2.38;1.15;;;;;;;;;;5066638;28;20048;-62
2023/06/13 13:20:38;;;;;;;1.33;1.23;;;;;;;;;;5065277;28;20083;-62
2023/06/13 13:23:04;;;;;;;2.65;1.20;;;;;;;;;;5065629;28;20040;-62
2023/06/13 13:25:30;;;;;;;4.30;1.70;;;;;;;;;;5066162;28;20048;-63
2023/06/13 13:27:57;;;;;;;1.85;1.33;;;;;;;;;;5065436;28;20040;-63
2023/06/13 13:30:23;;;;;;;1.85;1.42;;;;;;;;;;5065713;28;20122;-62
2023/06/13 13:32:52;;;;;;;1.50;1.40;;;;;;;;;;5065883;28;20499;-62
2023/06/13 13:35:19;;;;;;;1.75;1.23;;;;;;;;;;5066022;28;20048;-62
2023/06/13 13:37:45;;;;;;;2.08;1.70;;;;;;;;;;5065476;28;20351;-63
2023/06/13 13:40:11;;;;;;;2.35;1.33;;;;;;;;;;5066068;28;20080;-62
2023/06/13 13:42:38;;;;;;;1.40;1.30;;;;;;;;;;5065162;28;20439;-62
2023/06/13 13:45:05;;;;;;;2.08;1.45;;;;;;;;;;5065099;28;20690;-62
2023/06/13 13:47:31;;;;;;;1.60;1.27;;;;;;;;;;5065466;28;20048;-62
2023/06/13 13:49:57;;;;;;;1.60;1.50;;;;;;;;;;5065085;28;20036;-62
2023/06/13 13:52:24;;;;;;;1.42;1.33;;;;;;;;;;5065660;28;20051;-63
2023/06/13 13:54:50;;;;;;;2.22;1.42;;;;;;;;;;5048272;28;20444;-63
2023/06/13 13:57:16;;;;;;;3.33;1.00;;;;;;;;;;5065179;28;20051;-63
2023/06/13 13:59:44;;;;;;;2.50;1.52;;;;;;;;;;5065146;28;20116;-62
2023/06/13 14:02:10;;;;;;;3.08;1.40;;;;;;;;;;5064551;28;20099;-62
2023/06/13 14:04:36;;;;;;;1.65;1.30;;;;;;;;;;5047079;28;20044;-62
2023/06/13 14:07:02;;;;;;;4.93;1.50;;;;;;;;;;5064764;28;20082;-62
2023/06/13 14:09:28;;;;;;;1.80;1.30;;;;;;;;;;5064812;28;20078;-62
2023/06/13 14:11:55;;;;;;;1.45;1.10;;;;;;;;;;5064545;28;20131;-62
2023/06/13 14:14:21;;;;;;;1.33;1.23;;;;;;;;;;5065739;28;20408;-62
2023/06/13 14:16:47;;;;;;;3.28;1.48;;;;;;;;;;5064365;28;20468;-62
2023/06/13 14:19:13;;;;;;;1.50;1.27;;;;;;;;;;5064448;28;20086;-62
2023/06/13 14:21:39;;;;;;;2.13;1.25;;;;;;;;;;5065459;28;20052;-62
2023/06/13 14:24:06;;;;;;;1.58;1.20;;;;;;;;;;5064148;28;20056;-62
2023/06/13 14:26:32;;;;;;;1.33;1.20;;;;;;;;;;5064622;28;20040;-62
2023/06/13 14:28:58;;;;;;;1.23;1.13;;;;;;;;;;5064319;28;20043;-62
2023/06/13 14:31:24;;;;;;;1.50;1.40;;;;;;;;;;5064245;28;20147;-62
2023/06/13 14:33:50;;;;;;;1.50;1.40;;;;;;;;;;5065245;28;20052;-62
2023/06/13 14:36:16;;;;;;;1.45;1.20;;;;;;;;;;5064722;28;20040;-62
2023/06/13 14:38:43;;;;;;;1.65;1.40;;;;;;;;;;5064099;28;20087;-63
2023/06/13 14:41:10;;;;;;;2.30;1.40;;;;;;;;;;5064659;28;20040;-62
2023/06/13 14:43:36;;;;;;;1.50;1.40;;;;;;;;;;5064998;28;20044;-62